sensor_id;sensor_type;location;lat;lon;timestamp;pressure;altitude;pressure_sealevel;temperature;humidity
550;BME280;20066;48.764;9.176;2022-08-07T00:00:23;98763.69;;;20.80;38.62
550;BME280;20066;48.764;9.176;2022-08-07T00:02:52;98761.44;;;21.12;38.26
550;BME280;20066;48.764;9.176;2022-08-07T00:05:21;98758.06;;;20.96;37.61
550;BME280;20066;48.764;9.176;2022-08-07T00:07:51;98761.69;;;20.80;38.17
550;BME280;20066;48.764;9.176;2022-08-07T00:10:25;98755.34;;;20.58;38.54
550;BME280;20066;48.764;9.176;2022-08-07T00:12:58;98761.25;;;20.94;38.34
550;BME280;20066;48.764;9.176;2022-08-07T00:15:35;98756.22;;;21.05;39.02
550;BME280;20066;48.764;9.176;2022-08-07T00:18:17;98754.38;;;20.77;38.48
550;BME280;20066;48.764;9.176;2022-08-07T00:20:50;98764.22;;;21.00;39.11
550;BME280;20066;48.764;9.176;2022-08-07T00:23:21;98751.53;;;20.68;38.82
550;BME280;20066;48.764;9.176;2022-08-07T00:25:50;98754.34;;;20.52;39.49
550;BME280;20066;48.764;9.176;2022-08-07T00:28:28;98759.41;;;20.91;39.78
550;BME280;20066;48.764;9.176;2022-08-07T00:31:00;98753.59;;;20.76;38.92
550;BME280;20066;48.764;9.176;2022-08-07T00:33:32;98751.41;;;20.59;38.95
550;BME280;20066;48.764;9.176;2022-08-07T00:36:00;98754.50;;;20.86;38.53
550;BME280;20066;48.764;9.176;2022-08-07T00:38:30;98755.31;;;20.04;40.01
550;BME280;20066;48.764;9.176;2022-08-07T00:40:59;98754.75;;;20.37;39.70
550;BME280;20066;48.764;9.176;2022-08-07T00:43:27;98752.88;;;20.22;39.96
550;BME280;20066;48.764;9.176;2022-08-07T00:46:15;98759.13;;;20.35;39.65
550;BME280;20066;48.764;9.176;2022-08-07T00:48:43;98761.72;;;20.26;39.84
550;BME280;20066;48.764;9.176;2022-08-07T00:51:15;98757.84;;;20.11;40.98
550;BME280;20066;48.764;9.176;2022-08-07T00:53:45;98759.59;;;20.59;39.66
550;BME280;20066;48.764;9.176;2022-08-07T00:56:20;98760.09;;;20.28;39.94
550;BME280;20066;48.764;9.176;2022-08-07T00:58:55;98759.59;;;20.46;40.31
550;BME280;20066;48.764;9.176;2022-08-07T01:01:24;98759.31;;;20.15;41.74
550;BME280;20066;48.764;9.176;2022-08-07T01:03:53;98760.13;;;20.41;39.96
550;BME280;20066;48.764;9.176;2022-08-07T01:06:26;98757.53;;;19.80;40.46
550;BME280;20066;48.764;9.176;2022-08-07T01:08:57;98747.38;;;20.09;40.41
550;BME280;20066;48.764;9.176;2022-08-07T01:11:27;98754.34;;;19.69;41.01
550;BME280;20066;48.764;9.176;2022-08-07T01:14:15;98751.56;;;19.85;40.67
550;BME280;20066;48.764;9.176;2022-08-07T01:16:54;98750.88;;;20.10;40.26
550;BME280;20066;48.764;9.176;2022-08-07T01:19:23;98743.91;;;20.34;40.44
550;BME280;20066;48.764;9.176;2022-08-07T01:21:59;98748.25;;;20.19;40.21
550;BME280;20066;48.764;9.176;2022-08-07T01:24:29;98740.41;;;20.33;40.49
550;BME280;20066;48.764;9.176;2022-08-07T01:26:58;98745.50;;;20.06;41.39
550;BME280;20066;48.764;9.176;2022-08-07T01:29:27;98741.66;;;20.04;40.61
550;BME280;20066;48.764;9.176;2022-08-07T01:31:57;98748.06;;;20.26;40.57
550;BME280;20066;48.764;9.176;2022-08-07T01:34:29;98742.19;;;20.40;40.63
550;BME280;20066;48.764;9.176;2022-08-07T01:37:00;98744.97;;;19.53;41.50
550;BME280;20066;48.764;9.176;2022-08-07T01:39:28;98740.72;;;19.81;40.95
550;BME280;20066;48.764;9.176;2022-08-07T01:42:12;98741.44;;;19.98;40.92
550;BME280;20066;48.764;9.176;2022-08-07T01:45:01;98741.16;;;19.80;41.31
550;BME280;20066;48.764;9.176;2022-08-07T01:47:29;98742.91;;;20.15;40.83
550;BME280;20066;48.764;9.176;2022-08-07T01:50:18;98743.41;;;19.97;41.04
550;BME280;20066;48.764;9.176;2022-08-07T01:52:57;98743.53;;;20.07;40.51
550;BME280;20066;48.764;9.176;2022-08-07T01:55:28;98737.03;;;20.17;40.35
550;BME280;20066;48.764;9.176;2022-08-07T01:58:06;98742.16;;;20.15;40.87
550;BME280;20066;48.764;9.176;2022-08-07T02:00:57;98739.97;;;20.22;40.55
550;BME280;20066;48.764;9.176;2022-08-07T02:03:50;98743.00;;;20.12;40.85
550;BME280;20066;48.764;9.176;2022-08-07T02:06:20;98737.16;;;19.97;40.51
550;BME280;20066;48.764;9.176;2022-08-07T02:09:02;98732.06;;;19.99;40.25
550;BME280;20066;48.764;9.176;2022-08-07T02:11:32;98729.47;;;19.79;40.80
550;BME280;20066;48.764;9.176;2022-08-07T02:14:22;98725.75;;;19.57;41.15
550;BME280;20066;48.764;9.176;2022-08-07T02:17:05;98725.13;;;19.37;42.63
550;BME280;20066;48.764;9.176;2022-08-07T02:19:35;98726.91;;;19.43;41.93
550;BME280;20066;48.764;9.176;2022-08-07T02:22:24;98723.78;;;19.29;41.92
550;BME280;20066;48.764;9.176;2022-08-07T02:24:56;98729.16;;;19.32;42.41
550;BME280;20066;48.764;9.176;2022-08-07T02:27:25;98712.81;;;19.45;42.30
550;BME280;20066;48.764;9.176;2022-08-07T02:30:13;98717.09;;;19.46;41.73
550;BME280;20066;48.764;9.176;2022-08-07T02:33:04;98710.06;;;19.61;41.54
550;BME280;20066;48.764;9.176;2022-08-07T02:35:36;98720.97;;;19.61;41.48
550;BME280;20066;48.764;9.176;2022-08-07T02:38:28;98719.78;;;19.01;41.93
550;BME280;20066;48.764;9.176;2022-08-07T02:41:00;98717.38;;;18.86;42.64
550;BME280;20066;48.764;9.176;2022-08-07T02:43:30;98711.59;;;19.17;42.25
550;BME280;20066;48.764;9.176;2022-08-07T02:46:00;98716.78;;;19.28;42.15
550;BME280;20066;48.764;9.176;2022-08-07T02:48:29;98715.00;;;19.05;42.67
550;BME280;20066;48.764;9.176;2022-08-07T02:50:59;98719.50;;;19.28;42.49
550;BME280;20066;48.764;9.176;2022-08-07T02:53:32;98722.00;;;19.22;43.86
550;BME280;20066;48.764;9.176;2022-08-07T02:56:07;98718.91;;;19.04;43.36
550;BME280;20066;48.764;9.176;2022-08-07T02:58:49;98725.88;;;19.37;43.05
550;BME280;20066;48.764;9.176;2022-08-07T03:01:23;98720.91;;;19.48;41.85
550;BME280;20066;48.764;9.176;2022-08-07T03:04:06;98714.03;;;19.28;42.44
550;BME280;20066;48.764;9.176;2022-08-07T03:06:38;98716.16;;;19.36;43.15
550;BME280;20066;48.764;9.176;2022-08-07T03:09:12;98719.38;;;18.86;42.93
550;BME280;20066;48.764;9.176;2022-08-07T03:12:02;98719.78;;;18.84;43.60
550;BME280;20066;48.764;9.176;2022-08-07T03:14:32;98712.47;;;18.98;43.54
550;BME280;20066;48.764;9.176;2022-08-07T03:17:02;98719.00;;;19.33;42.28
550;BME280;20066;48.764;9.176;2022-08-07T03:19:32;98717.94;;;19.43;42.24
550;BME280;20066;48.764;9.176;2022-08-07T03:22:03;98718.72;;;19.27;42.89
550;BME280;20066;48.764;9.176;2022-08-07T03:24:31;98721.44;;;19.43;42.72
550;BME280;20066;48.764;9.176;2022-08-07T03:27:05;98722.06;;;19.02;43.08
550;BME280;20066;48.764;9.176;2022-08-07T03:29:37;98716.91;;;18.92;43.24
550;BME280;20066;48.764;9.176;2022-08-07T03:32:12;98722.25;;;18.95;43.54
550;BME280;20066;48.764;9.176;2022-08-07T03:34:42;98727.63;;;18.99;43.29
550;BME280;20066;48.764;9.176;2022-08-07T03:37:27;98722.06;;;19.02;43.72
550;BME280;20066;48.764;9.176;2022-08-07T03:39:58;98723.94;;;18.89;43.10
550;BME280;20066;48.764;9.176;2022-08-07T03:42:43;98719.25;;;19.22;42.60
550;BME280;20066;48.764;9.176;2022-08-07T03:45:15;98720.22;;;18.99;43.18
550;BME280;20066;48.764;9.176;2022-08-07T03:47:57;98712.69;;;18.87;43.72
550;BME280;20066;48.764;9.176;2022-08-07T03:50:27;98718.88;;;18.55;44.34
550;BME280;20066;48.764;9.176;2022-08-07T03:52:56;98720.97;;;19.00;43.76
550;BME280;20066;48.764;9.176;2022-08-07T03:55:26;98713.56;;;19.00;43.44
550;BME280;20066;48.764;9.176;2022-08-07T03:58:16;98718.69;;;18.98;43.64
550;BME280;20066;48.764;9.176;2022-08-07T04:01:05;98709.47;;;18.92;43.13
550;BME280;20066;48.764;9.176;2022-08-07T04:03:37;98710.84;;;19.16;43.47
550;BME280;20066;48.764;9.176;2022-08-07T04:06:21;98708.88;;;19.01;43.32
550;BME280;20066;48.764;9.176;2022-08-07T04:09:04;98719.19;;;19.09;43.46
550;BME280;20066;48.764;9.176;2022-08-07T04:11:41;98715.09;;;18.85;44.05
550;BME280;20066;48.764;9.176;2022-08-07T04:14:31;98712.53;;;18.94;44.02
550;BME280;20066;48.764;9.176;2022-08-07T04:17:11;98722.72;;;18.74;44.58
550;BME280;20066;48.764;9.176;2022-08-07T04:19:59;98727.19;;;18.84;45.33
550;BME280;20066;48.764;9.176;2022-08-07T04:22:27;98734.19;;;19.01;44.05
550;BME280;20066;48.764;9.176;2022-08-07T04:24:56;98728.78;;;18.81;43.81
550;BME280;20066;48.764;9.176;2022-08-07T04:27:27;98736.06;;;18.88;44.11
550;BME280;20066;48.764;9.176;2022-08-07T04:30:07;98740.06;;;19.00;44.29
550;BME280;20066;48.764;9.176;2022-08-07T04:32:55;98742.69;;;19.03;44.84
550;BME280;20066;48.764;9.176;2022-08-07T04:35:24;98735.09;;;19.11;44.35
550;BME280;20066;48.764;9.176;2022-08-07T04:37:54;98739.66;;;18.85;44.10
550;BME280;20066;48.764;9.176;2022-08-07T04:40:32;98742.78;;;19.00;43.73
550;BME280;20066;48.764;9.176;2022-08-07T04:43:00;98747.25;;;18.74;44.69
550;BME280;20066;48.764;9.176;2022-08-07T04:45:37;98746.72;;;19.15;44.53
550;BME280;20066;48.764;9.176;2022-08-07T04:48:31;98743.13;;;18.85;44.48
550;BME280;20066;48.764;9.176;2022-08-07T04:51:04;98746.44;;;19.25;44.15
550;BME280;20066;48.764;9.176;2022-08-07T04:53:41;98741.84;;;19.06;43.91
550;BME280;20066;48.764;9.176;2022-08-07T04:56:37;98751.41;;;19.31;44.13
550;BME280;20066;48.764;9.176;2022-08-07T04:59:32;98752.00;;;19.06;43.66
550;BME280;20066;48.764;9.176;2022-08-07T05:02:26;98750.53;;;19.17;43.69
550;BME280;20066;48.764;9.176;2022-08-07T05:04:59;98754.38;;;19.20;44.80
550;BME280;20066;48.764;9.176;2022-08-07T05:07:55;98757.09;;;19.20;44.50
550;BME280;20066;48.764;9.176;2022-08-07T05:10:28;98754.00;;;19.50;44.66
550;BME280;20066;48.764;9.176;2022-08-07T05:12:59;98750.13;;;19.64;43.81
550;BME280;20066;48.764;9.176;2022-08-07T05:15:51;98751.00;;;19.77;42.92
550;BME280;20066;48.764;9.176;2022-08-07T05:18:24;98753.63;;;19.64;43.24
550;BME280;20066;48.764;9.176;2022-08-07T05:20:56;98763.19;;;19.56;43.85
550;BME280;20066;48.764;9.176;2022-08-07T05:23:29;98757.25;;;19.45;44.35
550;BME280;20066;48.764;9.176;2022-08-07T05:26:02;98763.44;;;19.78;43.50
550;BME280;20066;48.764;9.176;2022-08-07T05:28:44;98760.53;;;19.85;43.46
550;BME280;20066;48.764;9.176;2022-08-07T05:31:16;98772.66;;;19.84;43.18
550;BME280;20066;48.764;9.176;2022-08-07T05:33:47;98769.31;;;20.06;43.48
550;BME280;20066;48.764;9.176;2022-08-07T05:36:27;98777.56;;;19.89;42.97
550;BME280;20066;48.764;9.176;2022-08-07T05:39:01;98771.00;;;20.16;42.77
550;BME280;20066;48.764;9.176;2022-08-07T05:41:50;98773.03;;;19.70;42.84
550;BME280;20066;48.764;9.176;2022-08-07T05:44:29;98771.91;;;19.96;42.92
550;BME280;20066;48.764;9.176;2022-08-07T05:46:58;98774.38;;;19.78;43.25
550;BME280;20066;48.764;9.176;2022-08-07T05:49:46;98769.69;;;20.20;43.93
550;BME280;20066;48.764;9.176;2022-08-07T05:52:16;98773.84;;;19.83;43.84
550;BME280;20066;48.764;9.176;2022-08-07T05:54:46;98773.06;;;19.83;44.43
550;BME280;20066;48.764;9.176;2022-08-07T05:57:25;98782.34;;;19.40;45.20
550;BME280;20066;48.764;9.176;2022-08-07T05:59:57;98780.22;;;18.99;46.78
550;BME280;20066;48.764;9.176;2022-08-07T06:02:29;98784.72;;;19.22;46.45
550;BME280;20066;48.764;9.176;2022-08-07T06:05:02;98777.28;;;19.55;45.82
550;BME280;20066;48.764;9.176;2022-08-07T06:07:32;98789.75;;;19.07;46.86
550;BME280;20066;48.764;9.176;2022-08-07T06:10:22;98787.25;;;18.97;46.72
550;BME280;20066;48.764;9.176;2022-08-07T06:12:50;98782.25;;;19.28;46.20
550;BME280;20066;48.764;9.176;2022-08-07T06:15:21;98785.13;;;19.53;46.60
550;BME280;20066;48.764;9.176;2022-08-07T06:18:08;98780.16;;;19.64;45.67
550;BME280;20066;48.764;9.176;2022-08-07T06:20:41;98777.78;;;20.24;44.71
550;BME280;20066;48.764;9.176;2022-08-07T06:23:31;98784.00;;;20.53;44.70
550;BME280;20066;48.764;9.176;2022-08-07T06:26:19;98778.19;;;20.10;45.39
550;BME280;20066;48.764;9.176;2022-08-07T06:28:55;98778.88;;;20.81;44.29
550;BME280;20066;48.764;9.176;2022-08-07T06:31:26;98772.38;;;20.49;45.21
550;BME280;20066;48.764;9.176;2022-08-07T06:34:14;98775.25;;;20.84;44.54
550;BME280;20066;48.764;9.176;2022-08-07T06:36:48;98774.63;;;20.80;45.33
550;BME280;20066;48.764;9.176;2022-08-07T06:39:18;98778.78;;;20.30;47.10
550;BME280;20066;48.764;9.176;2022-08-07T06:42:07;98768.28;;;20.28;47.54
550;BME280;20066;48.764;9.176;2022-08-07T06:44:38;98761.00;;;20.38;47.49
550;BME280;20066;48.764;9.176;2022-08-07T06:47:07;98757.84;;;20.65;47.29
550;BME280;20066;48.764;9.176;2022-08-07T06:49:41;98769.09;;;19.71;49.82
550;BME280;20066;48.764;9.176;2022-08-07T06:52:20;98761.00;;;21.14;46.69
550;BME280;20066;48.764;9.176;2022-08-07T06:55:03;98767.53;;;21.55;46.18
550;BME280;20066;48.764;9.176;2022-08-07T06:57:54;98767.50;;;20.15;49.14
550;BME280;20066;48.764;9.176;2022-08-07T07:00:26;98767.38;;;21.24;46.57
550;BME280;20066;48.764;9.176;2022-08-07T07:02:56;98771.19;;;19.80;50.52
550;BME280;20066;48.764;9.176;2022-08-07T07:05:34;98772.09;;;20.98;48.13
550;BME280;20066;48.764;9.176;2022-08-07T07:08:28;98764.28;;;20.33;49.61
550;BME280;20066;48.764;9.176;2022-08-07T07:10:58;98761.81;;;21.02;48.39
550;BME280;20066;48.764;9.176;2022-08-07T07:13:41;98770.50;;;21.47;47.69
550;BME280;20066;48.764;9.176;2022-08-07T07:16:30;98766.69;;;21.20;48.24
550;BME280;20066;48.764;9.176;2022-08-07T07:19:18;98775.69;;;21.67;47.86
550;BME280;20066;48.764;9.176;2022-08-07T07:22:08;98771.66;;;20.99;48.64
550;BME280;20066;48.764;9.176;2022-08-07T07:24:59;98756.44;;;21.24;48.48
550;BME280;20066;48.764;9.176;2022-08-07T07:27:51;98768.63;;;21.44;47.98
550;BME280;20066;48.764;9.176;2022-08-07T07:30:31;98760.75;;;22.77;44.92
550;BME280;20066;48.764;9.176;2022-08-07T07:33:07;98764.34;;;22.96;44.40
550;BME280;20066;48.764;9.176;2022-08-07T07:35:39;98762.00;;;22.02;46.21
550;BME280;20066;48.764;9.176;2022-08-07T07:38:28;98754.94;;;23.24;43.70
550;BME280;20066;48.764;9.176;2022-08-07T07:41:01;98756.06;;;24.69;41.48
550;BME280;20066;48.764;9.176;2022-08-07T07:43:37;98761.03;;;22.70;44.24
550;BME280;20066;48.764;9.176;2022-08-07T07:46:27;98749.66;;;24.12;41.09
550;BME280;20066;48.764;9.176;2022-08-07T07:49:18;98743.22;;;23.33;42.80
550;BME280;20066;48.764;9.176;2022-08-07T07:52:07;98746.13;;;24.21;40.60
550;BME280;20066;48.764;9.176;2022-08-07T07:54:36;98740.75;;;23.26;42.91
550;BME280;20066;48.764;9.176;2022-08-07T07:57:19;98740.00;;;23.98;39.82
550;BME280;20066;48.764;9.176;2022-08-07T08:00:09;98741.66;;;22.74;41.60
550;BME280;20066;48.764;9.176;2022-08-07T08:02:48;98731.22;;;22.90;40.14
550;BME280;20066;48.764;9.176;2022-08-07T08:05:32;98747.31;;;23.28;39.26
550;BME280;20066;48.764;9.176;2022-08-07T08:08:22;98743.41;;;23.93;38.36
550;BME280;20066;48.764;9.176;2022-08-07T08:11:05;98735.63;;;23.55;38.37
550;BME280;20066;48.764;9.176;2022-08-07T08:13:44;98730.44;;;25.20;35.20
550;BME280;20066;48.764;9.176;2022-08-07T08:16:25;98724.22;;;25.10;35.10
550;BME280;20066;48.764;9.176;2022-08-07T08:18:55;98738.63;;;23.39;38.04
550;BME280;20066;48.764;9.176;2022-08-07T08:21:36;98735.47;;;24.98;36.56
550;BME280;20066;48.764;9.176;2022-08-07T08:24:33;98733.56;;;24.80;34.64
550;BME280;20066;48.764;9.176;2022-08-07T08:27:36;98729.66;;;22.71;38.19
550;BME280;20066;48.764;9.176;2022-08-07T08:30:12;98734.44;;;22.89;38.64
550;BME280;20066;48.764;9.176;2022-08-07T08:32:52;98733.91;;;25.68;38.89
550;BME280;20066;48.764;9.176;2022-08-07T08:35:23;98721.41;;;24.21;36.32
550;BME280;20066;48.764;9.176;2022-08-07T08:37:57;98724.84;;;24.81;34.82
550;BME280;20066;48.764;9.176;2022-08-07T08:40:31;98717.31;;;23.79;37.62
550;BME280;20066;48.764;9.176;2022-08-07T08:43:08;98727.53;;;23.97;35.45
550;BME280;20066;48.764;9.176;2022-08-07T08:45:47;98731.88;;;24.40;35.73
550;BME280;20066;48.764;9.176;2022-08-07T08:48:31;98729.25;;;26.13;33.14
550;BME280;20066;48.764;9.176;2022-08-07T08:51:07;98730.78;;;24.89;35.51
550;BME280;20066;48.764;9.176;2022-08-07T08:53:55;98729.50;;;25.47;32.94
550;BME280;20066;48.764;9.176;2022-08-07T08:56:29;98726.59;;;24.00;34.02
550;BME280;20066;48.764;9.176;2022-08-07T08:59:04;98723.81;;;25.26;33.83
550;BME280;20066;48.764;9.176;2022-08-07T09:01:45;98728.72;;;27.69;29.22
550;BME280;20066;48.764;9.176;2022-08-07T09:04:21;98731.06;;;25.39;31.00
550;BME280;20066;48.764;9.176;2022-08-07T09:06:57;98728.63;;;25.41;31.30
550;BME280;20066;48.764;9.176;2022-08-07T09:09:41;98733.00;;;27.09;29.37
550;BME280;20066;48.764;9.176;2022-08-07T09:12:33;98737.13;;;26.49;28.64
550;BME280;20066;48.764;9.176;2022-08-07T09:15:15;98715.78;;;25.14;30.26
550;BME280;20066;48.764;9.176;2022-08-07T09:18:32;98726.56;;;25.03;30.08
550;BME280;20066;48.764;9.176;2022-08-07T09:21:11;98728.84;;;27.80;31.62
550;BME280;20066;48.764;9.176;2022-08-07T09:24:13;98722.63;;;27.04;27.39
550;BME280;20066;48.764;9.176;2022-08-07T09:27:12;98723.09;;;25.64;29.29
550;BME280;20066;48.764;9.176;2022-08-07T09:29:53;98727.41;;;26.39;33.36
550;BME280;20066;48.764;9.176;2022-08-07T09:32:56;98725.22;;;25.46;31.98
550;BME280;20066;48.764;9.176;2022-08-07T09:35:46;98722.28;;;25.02;30.38
550;BME280;20066;48.764;9.176;2022-08-07T09:38:38;98713.03;;;24.90;30.56
550;BME280;20066;48.764;9.176;2022-08-07T09:41:27;98712.69;;;25.98;29.13
550;BME280;20066;48.764;9.176;2022-08-07T09:44:17;98712.34;;;26.69;31.41
550;BME280;20066;48.764;9.176;2022-08-07T09:47:14;98712.06;;;27.02;26.97
550;BME280;20066;48.764;9.176;2022-08-07T09:50:11;98719.22;;;26.59;26.96
550;BME280;20066;48.764;9.176;2022-08-07T09:52:51;98701.28;;;27.25;26.55
550;BME280;20066;48.764;9.176;2022-08-07T09:55:33;98700.31;;;26.87;26.50
550;BME280;20066;48.764;9.176;2022-08-07T09:58:51;98703.22;;;28.68;25.78
550;BME280;20066;48.764;9.176;2022-08-07T10:01:39;98694.28;;;28.21;25.35
550;BME280;20066;48.764;9.176;2022-08-07T10:04:32;98692.00;;;26.67;26.91
550;BME280;20066;48.764;9.176;2022-08-07T10:07:20;98697.72;;;28.42;24.63
550;BME280;20066;48.764;9.176;2022-08-07T10:10:19;98693.50;;;27.89;25.61
550;BME280;20066;48.764;9.176;2022-08-07T10:13:10;98687.81;;;27.99;24.67
550;BME280;20066;48.764;9.176;2022-08-07T10:16:10;98688.97;;;28.18;27.41
550;BME280;20066;48.764;9.176;2022-08-07T10:19:15;98692.78;;;26.88;30.03
550;BME280;20066;48.764;9.176;2022-08-07T10:21:52;98696.47;;;25.38;26.72
550;BME280;20066;48.764;9.176;2022-08-07T10:24:49;98684.09;;;26.74;27.68
550;BME280;20066;48.764;9.176;2022-08-07T10:27:33;98681.63;;;26.47;25.97
550;BME280;20066;48.764;9.176;2022-08-07T10:30:15;98682.09;;;26.95;29.50
550;BME280;20066;48.764;9.176;2022-08-07T10:33:22;98674.72;;;25.93;26.27
550;BME280;20066;48.764;9.176;2022-08-07T10:36:37;98663.53;;;27.36;29.60
550;BME280;20066;48.764;9.176;2022-08-07T10:39:22;98676.47;;;28.59;24.72
550;BME280;20066;48.764;9.176;2022-08-07T10:42:24;98663.78;;;28.84;24.79
550;BME280;20066;48.764;9.176;2022-08-07T10:45:11;98663.94;;;29.18;23.04
550;BME280;20066;48.764;9.176;2022-08-07T10:47:50;98656.19;;;28.05;26.69
550;BME280;20066;48.764;9.176;2022-08-07T10:50:31;98659.97;;;28.08;22.88
550;BME280;20066;48.764;9.176;2022-08-07T10:53:08;98653.41;;;27.53;23.68
550;BME280;20066;48.764;9.176;2022-08-07T10:55:50;98672.97;;;30.39;24.08
550;BME280;20066;48.764;9.176;2022-08-07T10:58:33;98659.31;;;29.74;23.98
550;BME280;20066;48.764;9.176;2022-08-07T11:01:20;98658.25;;;30.83;20.48
550;BME280;20066;48.764;9.176;2022-08-07T11:04:04;98652.09;;;32.30;19.54
550;BME280;20066;48.764;9.176;2022-08-07T11:07:02;98645.66;;;30.76;21.71
550;BME280;20066;48.764;9.176;2022-08-07T11:09:55;98640.47;;;32.99;18.97
550;BME280;20066;48.764;9.176;2022-08-07T11:12:39;98637.75;;;32.69;18.95
550;BME280;20066;48.764;9.176;2022-08-07T11:15:19;98633.81;;;28.94;24.02
550;BME280;20066;48.764;9.176;2022-08-07T11:18:02;98633.06;;;31.27;21.82
550;BME280;20066;48.764;9.176;2022-08-07T11:20:41;98627.69;;;35.97;17.19
550;BME280;20066;48.764;9.176;2022-08-07T11:23:19;98625.56;;;31.52;19.92
550;BME280;20066;48.764;9.176;2022-08-07T11:26:07;98613.97;;;33.30;18.52
550;BME280;20066;48.764;9.176;2022-08-07T11:28:44;98620.06;;;30.89;21.30
550;BME280;20066;48.764;9.176;2022-08-07T11:31:25;98608.78;;;36.67;17.98
550;BME280;20066;48.764;9.176;2022-08-07T11:34:08;98613.38;;;36.08;15.93
550;BME280;20066;48.764;9.176;2022-08-07T11:36:48;98617.50;;;35.86;17.29
550;BME280;20066;48.764;9.176;2022-08-07T11:39:36;98612.25;;;30.87;22.04
550;BME280;20066;48.764;9.176;2022-08-07T11:42:41;98598.03;;;36.30;17.60
550;BME280;20066;48.764;9.176;2022-08-07T11:45:20;98599.97;;;32.73;19.05
550;BME280;20066;48.764;9.176;2022-08-07T11:48:22;98597.13;;;34.44;20.27
550;BME280;20066;48.764;9.176;2022-08-07T11:51:16;98598.25;;;32.46;20.40
550;BME280;20066;48.764;9.176;2022-08-07T11:54:31;98606.69;;;34.35;20.10
550;BME280;20066;48.764;9.176;2022-08-07T11:57:08;98606.69;;;37.62;16.63
550;BME280;20066;48.764;9.176;2022-08-07T12:00:07;98600.66;;;37.43;15.01
550;BME280;20066;48.764;9.176;2022-08-07T12:06:27;98607.66;;;41.39;12.65
550;BME280;20066;48.764;9.176;2022-08-07T12:09:10;98593.69;;;36.49;15.87
550;BME280;20066;48.764;9.176;2022-08-07T12:11:56;98593.81;;;35.53;17.40
550;BME280;20066;48.764;9.176;2022-08-07T12:14:43;98585.78;;;36.12;16.56
550;BME280;20066;48.764;9.176;2022-08-07T12:17:23;98580.09;;;32.82;18.67
550;BME280;20066;48.764;9.176;2022-08-07T12:20:03;98584.28;;;36.11;19.34
550;BME280;20066;48.764;9.176;2022-08-07T12:23:10;98568.13;;;37.93;16.77
550;BME280;20066;48.764;9.176;2022-08-07T12:25:45;98569.78;;;35.99;15.98
550;BME280;20066;48.764;9.176;2022-08-07T12:28:48;98578.53;;;33.24;18.33
550;BME280;20066;48.764;9.176;2022-08-07T12:31:35;98581.00;;;33.47;20.04
550;BME280;20066;48.764;9.176;2022-08-07T12:34:27;98568.47;;;36.93;19.04
550;BME280;20066;48.764;9.176;2022-08-07T12:36:56;98560.94;;;36.44;17.05
550;BME280;20066;48.764;9.176;2022-08-07T12:39:29;98556.13;;;35.75;18.51
550;BME280;20066;48.764;9.176;2022-08-07T12:42:19;98563.53;;;38.59;14.88
550;BME280;20066;48.764;9.176;2022-08-07T12:44:55;98555.38;;;34.20;17.69
550;BME280;20066;48.764;9.176;2022-08-07T12:47:30;98559.72;;;37.93;14.81
550;BME280;20066;48.764;9.176;2022-08-07T12:50:09;98561.00;;;32.19;18.94
550;BME280;20066;48.764;9.176;2022-08-07T12:53:01;98563.34;;;37.12;14.94
550;BME280;20066;48.764;9.176;2022-08-07T12:55:57;98566.84;;;36.05;15.60
550;BME280;20066;48.764;9.176;2022-08-07T12:58:32;98558.56;;;33.02;18.79
550;BME280;20066;48.764;9.176;2022-08-07T13:01:10;98551.22;;;38.39;15.04
550;BME280;20066;48.764;9.176;2022-08-07T13:03:51;98544.72;;;37.75;15.10
550;BME280;20066;48.764;9.176;2022-08-07T13:06:43;98555.78;;;40.38;15.77
550;BME280;20066;48.764;9.176;2022-08-07T13:09:45;98561.38;;;43.75;10.92
550;BME280;20066;48.764;9.176;2022-08-07T13:12:53;98547.66;;;43.41;11.10
550;BME280;20066;48.764;9.176;2022-08-07T13:15:30;98553.69;;;44.39;10.83
550;BME280;20066;48.764;9.176;2022-08-07T13:18:14;98529.63;;;40.38;15.26
550;BME280;20066;48.764;9.176;2022-08-07T13:21:01;98525.28;;;40.03;13.10
550;BME280;20066;48.764;9.176;2022-08-07T13:23:39;98531.75;;;35.62;15.54
550;BME280;20066;48.764;9.176;2022-08-07T13:26:34;98531.66;;;39.36;13.19
550;BME280;20066;48.764;9.176;2022-08-07T13:29:15;98526.56;;;35.87;16.53
550;BME280;20066;48.764;9.176;2022-08-07T13:31:51;98533.59;;;39.26;13.64
550;BME280;20066;48.764;9.176;2022-08-07T13:34:34;98522.47;;;42.17;11.81
550;BME280;20066;48.764;9.176;2022-08-07T13:37:09;98516.22;;;42.19;12.25
550;BME280;20066;48.764;9.176;2022-08-07T13:40:04;98509.13;;;37.63;13.97
550;BME280;20066;48.764;9.176;2022-08-07T13:42:56;98505.41;;;36.79;15.42
550;BME280;20066;48.764;9.176;2022-08-07T13:45:27;98510.03;;;34.53;16.54
550;BME280;20066;48.764;9.176;2022-08-07T13:48:16;98503.09;;;37.36;16.56
550;BME280;20066;48.764;9.176;2022-08-07T13:51:00;98509.06;;;33.98;17.76
550;BME280;20066;48.764;9.176;2022-08-07T13:53:52;98494.03;;;34.14;17.99
550;BME280;20066;48.764;9.176;2022-08-07T13:56:28;98492.88;;;38.47;14.61
550;BME280;20066;48.764;9.176;2022-08-07T13:59:08;98492.78;;;40.80;13.37
550;BME280;20066;48.764;9.176;2022-08-07T14:01:46;98493.59;;;38.55;13.99
550;BME280;20066;48.764;9.176;2022-08-07T14:04:32;98481.94;;;37.27;14.97
550;BME280;20066;48.764;9.176;2022-08-07T14:07:14;98478.19;;;41.28;13.87
550;BME280;20066;48.764;9.176;2022-08-07T14:09:42;98479.47;;;39.60;14.02
550;BME280;20066;48.764;9.176;2022-08-07T14:12:36;98476.31;;;37.96;14.88
550;BME280;20066;48.764;9.176;2022-08-07T14:15:15;98473.75;;;35.99;16.72
550;BME280;20066;48.764;9.176;2022-08-07T14:17:52;98473.69;;;31.38;20.28
550;BME280;20066;48.764;9.176;2022-08-07T14:20:43;98472.34;;;39.02;14.76
550;BME280;20066;48.764;9.176;2022-08-07T14:23:24;98472.88;;;39.33;14.52
550;BME280;20066;48.764;9.176;2022-08-07T14:26:19;98467.53;;;40.55;12.16
550;BME280;20066;48.764;9.176;2022-08-07T14:28:59;98466.28;;;38.80;13.44
550;BME280;20066;48.764;9.176;2022-08-07T14:31:36;98465.47;;;33.95;17.33
550;BME280;20066;48.764;9.176;2022-08-07T14:34:25;98457.09;;;35.93;17.82
550;BME280;20066;48.764;9.176;2022-08-07T14:36:57;98455.28;;;35.26;16.27
550;BME280;20066;48.764;9.176;2022-08-07T14:39:29;98448.81;;;34.29;17.52